Terminal Aerodrome Forecast
Issued by NWS

Home | Current Version | Previous Version | Text Only | Print | Product List | Glossary Off
Versions: 1 2 3 4 5 6 7 8 9 10 11 12 13 14 15 16 17 18 19 20

000
FTUS42 KMHX 271741
TAFISO
TAF
KISO 271741Z 2718/2818 23010KT P6SM SCT250
     FM272100 22010KT P6SM VCSH BKN050
      TEMPO 2721/2724 4SM TS OVC025CB
     FM280300 20010KT P6SM BKN050
      AMD LTD TO CLD VIS AND WIND=

USA.gov is the U.S. government's official web portal to all federal, state and local government web resources and services.